Terminal Aerodrome Forecast
Issued by NWS Dallas/Fort Worth, TX

Home | Current Version | Previous Version | Text Only | Print | Product List | Glossary On
Versions: 1 2 3 4 5 6 7 8 9 10 11 12 13 14 15 16 17 18 19 20 21 22 23 24 25 26 27 28
371
FTUS44 KFWD 280802 AAA
TAFDFW
TAF AMD
KDFW 280802Z 2808/2912 16015KT P6SM SCT018 BKN250
     FM281000 17016KT P6SM BKN015
     FM281300 18016KT P6SM BKN025
     FM281600 18012KT P6SM SCT025 BKN035
     FM282000 17013KT P6SM SCT045 BKN150
     FM290800 16018KT P6SM BKN015=

USA.gov is the U.S. government's official web portal to all federal, state and local government web resources and services.